Time;durP1;ratioP1;P1;durP2;ratioP2;P2;SDS_P1;SDS_P2;PMS_P1;PMS_P2;Temp;Humidity;BMP_temperature;BMP_pressure;BME280_temperature;BME280_humidity;BME280_pressure;Samples;Min_cycle;Max_cycle;Signal;HPM_P1;HPM_P2
2022/08/03 00:01:16;;;;;;;5.55;2.90;;;;;;;26.02;43.76;99899.34;5087386;28;20020;-28
2022/08/03 00:03:42;;;;;;;5.95;3.42;;;;;;;25.89;44.32;99922.97;5069117;28;20024;-27
2022/08/03 00:06:08;;;;;;;6.15;3.38;;;;;;;25.54;45.16;99909.38;5087605;28;20047;-29
2022/08/03 00:08:33;;;;;;;10.43;4.32;;;;;;;25.58;45.11;99902.16;5087710;28;20032;-33
2022/08/03 00:10:59;;;;;;;9.13;4.05;;;;;;;25.61;45.87;99904.22;5087287;28;20119;-30
2022/08/03 00:13:25;;;;;;;8.98;3.80;;;;;;;25.60;45.83;99919.00;5087565;28;20520;-29
2022/08/03 00:15:50;;;;;;;6.50;3.85;;;;;;;25.41;46.15;99913.88;5068865;28;20114;-31
2022/08/03 00:18:15;;;;;;;9.02;4.53;;;;;;;25.63;47.86;99892.97;5087163;28;20032;-29
2022/08/03 00:20:41;;;;;;;8.38;3.85;;;;;;;25.85;45.43;99919.28;5069076;28;20032;-34
2022/08/03 00:23:07;;;;;;;11.18;4.60;;;;;;;25.53;46.90;99917.88;5087303;28;20023;-29
2022/08/03 00:25:36;;;;;;;9.35;4.70;;;;;;;25.82;46.91;99922.66;5087239;28;20043;-27
2022/08/03 00:28:03;;;;;;;8.52;4.38;;;;;;;26.25;45.50;99924.47;5087001;28;20032;-28
2022/08/03 00:30:29;;;;;;;14.05;4.60;;;;;;;26.14;44.93;99920.50;5057942;28;20076;-30
2022/08/03 00:32:54;;;;;;;10.60;4.30;;;;;;;25.63;45.56;99918.34;5046725;28;20044;-31
2022/08/03 00:35:20;;;;;;;8.13;4.30;;;;;;;25.49;47.02;99912.25;5047253;28;20408;-28
2022/08/03 00:37:46;;;;;;;9.77;4.07;;;;;;;25.58;46.83;99904.88;5045394;28;20059;-29
2022/08/03 00:40:12;;;;;;;7.28;3.53;;;;;;;25.88;46.62;99917.81;5047013;28;20060;-36
2022/08/03 00:42:52;;;;;;;7.73;4.17;;;;;;;25.92;46.16;99897.75;5046795;28;20087;-28
2022/08/03 00:45:24;;;;;;;6.47;3.70;;;;;;;26.32;45.93;99927.53;5045008;28;20021;-28
2022/08/03 00:47:49;;;;;;;7.70;3.88;;;;;;;26.25;45.40;99919.84;5047115;28;20040;-28
2022/08/03 00:50:17;;;;;;;6.20;4.00;;;;;;;25.93;45.20;99915.75;5045535;28;20029;-28
2022/08/03 00:52:43;;;;;;;6.78;3.83;;;;;;;25.26;46.24;99920.63;5046899;28;20021;-34
2022/08/03 00:55:09;;;;;;;7.80;4.20;;;;;;;25.14;47.62;99922.34;5045382;28;20457;-32
2022/08/03 00:57:35;;;;;;;6.82;5.00;;;;;;;24.83;47.96;99910.44;5045250;28;20114;-31
2022/08/03 01:00:01;;;;;;;7.50;4.38;;;;;;;24.50;47.97;99907.31;5045168;28;20033;-28
2022/08/03 01:02:28;;;;;;;9.00;4.55;;;;;;;24.37;48.37;99916.38;5046930;28;20128;-27
2022/08/03 01:04:54;;;;;;;6.05;4.00;;;;;;;24.22;49.00;99893.06;5045355;28;20049;-29
2022/08/03 01:07:28;;;;;;;6.78;3.78;;;;;;;24.14;49.50;99921.09;5046358;28;20094;-30
2022/08/03 01:10:00;;;;;;;6.88;3.70;;;;;;;24.24;49.38;99926.25;5046850;28;20036;-29
2022/08/03 01:12:47;;;;;;;6.60;3.92;;;;;;;24.24;50.05;99923.53;5046428;28;20037;-29
2022/08/03 01:15:42;;;;;;;6.72;3.60;;;;;;;24.00;50.83;99921.97;5045063;28;20033;-28
2022/08/03 01:18:19;;;;;;;7.60;3.40;;;;;;;23.95;51.03;99908.50;5045435;28;20035;-30
2022/08/03 01:20:52;;;;;;;7.75;3.53;;;;;;;23.57;52.74;99914.28;5045133;28;20090;-27
2022/08/03 01:23:36;;;;;;;6.43;3.58;;;;;;;23.60;52.92;99916.41;5045001;28;20504;-27
2022/08/03 01:26:16;;;;;;;7.25;3.78;;;;;;;23.38;53.27;99905.53;5046591;28;20017;-27
2022/08/03 01:28:55;;;;;;;5.97;3.90;;;;;;;23.40;53.56;99922.34;5046788;28;20025;-27
2022/08/03 01:31:27;;;;;;;6.63;3.78;;;;;;;23.44;53.59;99917.91;5074871;28;20079;-28
2022/08/03 01:33:59;;;;;;;6.35;3.55;;;;;;;23.54;53.70;99933.97;5068553;28;20028;-31
2022/08/03 01:36:31;;;;;;;10.52;4.30;;;;;;;23.52;53.19;99927.22;5068454;28;20470;-28
2022/08/03 01:39:02;;;;;;;6.93;4.00;;;;;;;23.53;53.39;99929.63;5070463;28;20100;-30
2022/08/03 01:41:32;;;;;;;6.75;4.10;;;;;;;23.76;52.57;99910.56;5089882;28;20032;-30
2022/08/03 01:44:01;;;;;;;6.43;4.25;;;;;;;23.92;52.08;99924.63;5071908;28;20101;-28
2022/08/03 01:46:29;;;;;;;8.77;4.47;;;;;;;23.61;53.17;99928.91;5071951;28;20031;-28
2022/08/03 01:48:58;;;;;;;6.45;3.72;;;;;;;23.38;53.17;99925.38;5071573;28;20031;-40
2022/08/03 01:51:23;;;;;;;6.88;3.78;;;;;;;23.30;53.85;99928.03;5071631;28;20020;-28
2022/08/03 01:53:53;;;;;;;7.80;4.07;;;;;;;23.18;55.08;99910.31;5089971;28;20033;-27
2022/08/03 01:56:21;;;;;;;9.43;3.75;;;;;;;23.09;56.21;99916.78;5071301;28;20024;-27
2022/08/03 01:58:49;;;;;;;8.48;4.03;;;;;;;23.05;56.48;99931.00;5071627;28;20460;-32
2022/08/03 02:01:16;;;;;;;6.93;4.00;;;;;;;23.11;56.09;99931.69;5071555;28;20927;-28
2022/08/03 02:03:44;;;;;;;6.47;4.00;;;;;;;23.12;56.08;99927.84;5071398;28;20065;-31
2022/08/03 02:06:11;;;;;;;7.78;4.15;;;;;;;23.32;55.84;99939.41;5071367;28;20031;-29
2022/08/03 02:08:42;;;;;;;9.13;3.83;;;;;;;23.38;54.91;99921.84;5071268;28;20036;-31
2022/08/03 02:11:07;;;;;;;8.43;3.83;;;;;;;23.35;55.49;99936.06;5071264;28;20499;-32
2022/08/03 02:13:34;;;;;;;6.72;3.70;;;;;;;23.27;56.04;99946.56;5054602;28;20031;-27
2022/08/03 02:16:02;;;;;;;8.73;3.80;;;;;;;23.20;55.33;99918.16;5071351;28;20024;-31
2022/08/03 02:18:29;;;;;;;7.78;3.78;;;;;;;23.46;54.88;99924.63;5071187;28;20047;-29
2022/08/03 02:20:56;;;;;;;7.15;3.97;;;;;;;23.60;54.32;99937.34;5071238;28;20035;-28
2022/08/03 02:23:21;;;;;;;6.45;3.70;;;;;;;23.25;54.97;99916.16;5070995;28;20040;-30
2022/08/03 02:25:52;;;;;;;8.00;3.70;;;;;;;23.12;55.91;99927.84;5089460;28;20024;-29
2022/08/03 02:28:28;;;;;;;6.45;3.78;;;;;;;23.30;56.24;99938.91;5071133;28;20051;-28
2022/08/03 02:30:55;;;;;;;7.18;3.67;;;;;;;23.34;55.83;99935.25;5070761;28;20385;-27
2022/08/03 02:33:29;;;;;;;5.95;3.78;;;;;;;23.12;57.03;99938.72;5071050;28;20023;-28
2022/08/03 02:35:56;;;;;;;4.85;3.40;;;;;;;23.03;57.85;99946.03;5070936;28;20028;-32
2022/08/03 02:38:27;;;;;;;7.00;4.22;;;;;;;23.16;57.49;99945.19;5070999;28;20024;-31
2022/08/03 02:40:56;;;;;;;9.55;4.25;;;;;;;23.37;57.02;99939.28;5070865;28;20097;-30
2022/08/03 02:43:24;;;;;;;6.78;3.97;;;;;;;23.38;56.67;99946.34;5070837;28;20073;-35
2022/08/03 02:45:52;;;;;;;11.48;4.57;;;;;;;23.44;56.41;99947.84;5070621;28;20126;-28
2022/08/03 02:48:22;;;;;;;6.00;4.20;;;;;;;23.37;56.67;99931.09;5070571;28;20134;-27
2022/08/03 02:50:50;;;;;;;8.70;4.32;;;;;;;23.55;56.12;99945.66;5070664;28;20564;-34
2022/08/03 02:53:17;;;;;;;9.43;4.40;;;;;;;23.63;54.79;99915.78;5088684;28;20024;-27
2022/08/03 02:55:45;;;;;;;8.73;4.43;;;;;;;23.61;55.35;99945.22;5070741;28;20069;-30
2022/08/03 02:58:12;;;;;;;;;;;;;;;23.87;54.63;99941.91;5070978;28;20407;-27
2022/08/03 03:00:39;;;;;;;14.10;4.65;;;;;;;23.69;54.60;99940.97;5070242;28;19908;-32
2022/08/03 03:03:06;;;;;;;12.93;4.72;;;;;;;23.61;55.11;99939.78;5070326;28;20506;-27
2022/08/03 03:05:33;;;;;;;8.65;3.72;;;;;;;23.36;55.60;99937.69;5088522;28;20059;-29
2022/08/03 03:07:59;;;;;;;10.00;4.50;;;;;;;23.43;55.35;99933.41;5070393;28;20024;-27
2022/08/03 03:10:25;;;;;;;7.43;4.32;;;;;;;23.66;54.83;99963.38;5070157;28;20071;-27
2022/08/03 03:12:55;;;;;;;7.90;4.13;;;;;;;23.67;54.75;99948.63;5088232;28;20059;-29
2022/08/03 03:15:22;;;;;;;11.82;5.05;;;;;;;23.73;55.31;99963.72;5070052;28;20032;-28
2022/08/03 03:17:49;;;;;;;13.55;4.78;;;;;;;23.74;55.00;99964.53;5070249;28;20028;-30
2022/08/03 03:20:15;;;;;;;10.32;4.50;;;;;;;23.84;55.27;99967.88;5070223;28;20055;-32
2022/08/03 03:22:42;;;;;;;9.43;4.85;;;;;;;23.87;54.74;99969.16;5069841;28;20024;-28
2022/08/03 03:25:09;;;;;;;16.42;4.45;;;;;;;23.54;55.60;99958.47;5069826;28;20031;-29
2022/08/03 03:27:34;;;;;;;7.05;4.25;;;;;;;23.57;55.87;99971.47;5069647;28;20035;-27
2022/08/03 03:30:01;;;;;;;6.70;4.38;;;;;;;23.73;54.81;99968.38;5087762;28;20044;-27
2022/08/03 03:32:28;;;;;;;9.15;4.38;;;;;;;23.72;55.07;99964.03;5088227;28;20101;-28
2022/08/03 03:34:55;;;;;;;10.70;4.45;;;;;;;23.64;55.63;99977.28;5087984;28;20089;-31
2022/08/03 03:37:21;;;;;;;9.25;4.60;;;;;;;23.41;55.58;99962.84;5069947;28;20084;-28
2022/08/03 03:39:47;;;;;;;8.25;4.35;;;;;;;23.47;55.49;99983.38;5069473;28;20465;-28
2022/08/03 03:42:12;;;;;;;8.90;4.85;;;;;;;23.40;55.31;99982.22;5052936;28;20032;-27
2022/08/03 03:44:38;;;;;;;10.07;4.63;;;;;;;23.61;55.47;99991.50;5087488;28;20036;-29
2022/08/03 03:47:04;;;;;;;7.85;4.70;;;;;;;23.37;56.02;99980.09;5069448;28;20036;-28
2022/08/03 03:49:30;;;;;;;10.38;5.00;;;;;;;23.18;57.00;99978.31;5070071;28;20461;-31
2022/08/03 03:51:56;;;;;;;7.60;4.78;;;;;;;23.42;55.94;99974.53;5069431;28;20020;-30
2022/08/03 03:54:21;;;;;;;11.55;4.57;;;;;;;23.53;55.88;99997.69;5087898;28;20024;-30
2022/08/03 03:56:47;;;;;;;8.30;4.57;;;;;;;23.44;56.05;99977.75;5087757;28;20395;-27
2022/08/03 03:59:13;;;;;;;9.85;4.63;;;;;;;23.50;55.51;99968.38;5069243;28;20049;-28
2022/08/03 04:01:38;;;;;;;13.38;5.38;;;;;;;23.53;55.71;99986.78;5069116;28;20051;-31
2022/08/03 04:12:21;;;;;;;11.63;4.85;;;;;;;23.74;55.38;99998.03;5087485;28;20105;-29
2022/08/03 04:14:48;;;;;;;13.73;5.28;;;;;;;23.57;55.63;99992.44;5069370;28;20085;-28
2022/08/03 04:17:15;;;;;;;12.07;5.07;;;;;;;23.70;55.90;99996.22;5087514;28;20088;-31
2022/08/03 04:19:51;;;;;;;9.87;4.83;;;;;;;23.45;56.60;99995.69;5069026;28;20030;-27
2022/08/03 04:22:19;;;;;;;16.08;5.00;;;;;;;23.54;56.01;100004.75;5087411;28;20088;-30
2022/08/03 04:24:52;;;;;;;15.55;5.00;;;;;;;23.60;56.18;100011.69;5087272;28;20101;-28
2022/08/03 04:27:22;;;;;;;19.00;4.95;;;;;;;23.33;57.77;99992.69;5068813;28;20020;-27
2022/08/03 04:29:51;;;;;;;12.07;4.45;;;;;;;23.42;58.61;100010.72;5068582;28;20032;-32
2022/08/03 04:32:19;;;;;;;9.55;5.10;;;;;;;23.59;57.77;100006.53;5068922;28;20024;-28
2022/08/03 04:34:46;;;;;;;13.68;5.28;;;;;;;23.70;57.19;99996.22;5068767;28;20040;-27
2022/08/03 04:37:23;;;;;;;7.53;4.85;;;;;;;23.52;58.36;100006.97;5068779;28;20123;-35
2022/08/03 04:39:50;;;;;;;9.77;5.68;;;;;;;23.59;58.15;100018.22;5069083;28;20055;-31
2022/08/03 04:42:19;;;;;;;13.27;6.13;;;;;;;23.60;58.18;100000.78;5069135;28;20036;-28
2022/08/03 04:44:47;;;;;;;16.05;5.90;;;;;;;23.82;57.97;100021.84;5087442;28;20028;-28
2022/08/03 04:47:12;;;;;;;10.07;6.32;;;;;;;23.94;57.40;100013.09;5068641;28;20468;-29
2022/08/03 04:49:38;;;;;;;11.75;5.15;;;;;;;24.27;54.92;100005.47;5087395;28;20063;-28
2022/08/03 04:52:06;;;;;;;9.43;4.82;;;;;;;24.09;54.46;100011.09;5087052;28;20118;-29
2022/08/03 04:54:39;;;;;;;8.20;4.93;;;;;;;24.25;55.39;100020.50;5068999;28;20024;-28
2022/08/03 04:57:04;;;;;;;8.38;4.75;;;;;;;24.30;55.26;100028.56;5068524;28;20035;-29
2022/08/03 04:59:30;;;;;;;10.07;4.60;;;;;;;24.45;55.01;100025.41;5068694;28;20020;-31
2022/08/03 05:01:55;;;;;;;14.98;6.95;;;;;;;24.83;53.52;100030.44;5068932;28;20027;-35
2022/08/03 05:04:21;;;;;;;10.30;5.15;;;;;;;24.73;54.76;100017.09;5087143;28;20110;-29
2022/08/03 05:06:47;;;;;;;8.77;4.32;;;;;;;24.72;53.30;100031.81;5086925;28;20780;-28
2022/08/03 05:09:12;;;;;;;9.13;4.35;;;;;;;24.97;52.65;100026.81;5086545;28;20031;-29
2022/08/03 05:11:38;;;;;;;10.35;3.92;;;;;;;25.18;51.08;100037.94;5086724;28;20024;-29
2022/08/03 05:14:03;;;;;;;6.35;4.15;;;;;;;25.19;50.44;100040.34;5089055;28;20036;-28
2022/08/03 05:16:29;;;;;;;10.07;4.47;;;;;;;25.38;50.34;100028.38;5072709;28;20067;-28
2022/08/03 05:18:54;;;;;;;5.72;3.53;;;;;;;25.54;49.30;100045.91;5091006;28;20028;-31
2022/08/03 05:21:20;;;;;;;9.65;4.13;;;;;;;25.58;48.72;100033.22;5090678;28;20067;-31
2022/08/03 05:23:45;;;;;;;8.48;4.40;;;;;;;25.81;48.76;100050.25;5090652;28;20086;-32
2022/08/03 05:26:11;;;;;;;9.35;3.80;;;;;;;25.69;48.46;100049.28;5090689;28;20039;-28
2022/08/03 05:28:37;;;;;;;5.15;3.58;;;;;;;25.48;49.46;100054.53;5090389;28;20035;-36
2022/08/03 05:31:02;;;;;;;5.85;3.88;;;;;;;25.56;48.73;100042.81;5061530;28;20507;-29
2022/08/03 05:33:28;;;;;;;8.02;4.57;;;;;;;25.52;49.84;100053.59;5080013;28;20031;-28
2022/08/03 05:35:53;;;;;;;6.63;3.72;;;;;;;25.34;50.50;100046.50;5078731;28;20024;-28
2022/08/03 05:38:19;;;;;;;7.50;3.72;;;;;;;25.45;50.77;100051.31;5080976;28;20494;-29
2022/08/03 05:40:44;;;;;;;6.88;3.42;;;;;;;25.25;52.46;100057.38;5061037;28;20016;-28
2022/08/03 05:43:10;;;;;;;5.88;4.13;;;;;;;25.52;49.92;100047.31;5079011;28;20145;-28
2022/08/03 05:45:36;;;;;;;7.22;3.92;;;;;;;25.58;49.53;100048.78;5062510;28;20402;-36
2022/08/03 05:48:01;;;;;;;6.00;3.78;;;;;;;25.57;50.08;100045.25;5079011;28;20025;-30
2022/08/03 05:50:26;;;;;;;8.07;4.20;;;;;;;25.58;51.71;100063.25;5079595;28;20493;-30
2022/08/03 05:52:56;;;;;;;7.85;3.67;;;;;;;25.61;51.48;100057.13;5080132;28;20484;-30
2022/08/03 05:55:21;;;;;;;9.57;4.10;;;;;;;25.58;51.95;100056.97;5072630;28;20032;-30
2022/08/03 05:57:47;;;;;;;10.35;4.20;;;;;;;25.74;51.51;100063.56;5069810;28;20401;-31
2022/08/03 06:00:13;;;;;;;6.93;4.13;;;;;;;25.89;50.94;100062.31;5069915;28;20035;-28
2022/08/03 06:02:39;;;;;;;6.60;4.47;;;;;;;25.84;50.54;100063.25;5051755;28;20028;-27
2022/08/03 06:05:05;;;;;;;9.18;4.07;;;;;;;26.12;50.16;100065.69;5051493;28;20048;-28
2022/08/03 06:07:31;;;;;;;7.93;4.18;;;;;;;26.37;49.24;100083.16;5051522;28;20048;-30
2022/08/03 06:09:56;;;;;;;6.63;4.13;;;;;;;26.68;49.94;100078.63;5069923;28;20113;-31
2022/08/03 06:12:22;;;;;;;7.68;3.90;;;;;;;26.66;48.06;100062.53;5069364;28;20415;-28
2022/08/03 06:14:47;;;;;;;9.20;4.38;;;;;;;26.97;48.59;100083.31;5069404;28;20032;-38
2022/08/03 06:17:13;;;;;;;7.28;4.38;;;;;;;27.00;47.82;100082.69;5069351;28;20028;-29
2022/08/03 06:19:38;;;;;;;5.85;4.10;;;;;;;27.01;47.84;100081.53;5069368;28;20037;-29
2022/08/03 06:22:04;;;;;;;7.55;4.35;;;;;;;27.32;48.68;100078.53;5069633;28;20028;-28
2022/08/03 06:24:29;;;;;;;7.82;4.55;;;;;;;27.53;46.68;100081.28;5068860;28;20454;-27
2022/08/03 06:26:56;;;;;;;7.90;4.88;;;;;;;27.65;45.59;100081.34;5050956;28;20480;-36
2022/08/03 06:29:21;;;;;;;9.38;4.40;;;;;;;27.51;46.83;100069.88;5051022;28;20066;-32
2022/08/03 06:31:47;;;;;;;7.38;4.60;;;;;;;27.61;47.78;100085.09;5069092;28;20057;-30
2022/08/03 06:34:12;;;;;;;7.35;3.95;;;;;;;27.63;47.25;100072.69;5068982;28;20107;-31
2022/08/03 06:36:38;;;;;;;9.35;4.70;;;;;;;27.95;45.83;100078.59;5069187;28;20381;-28
2022/08/03 06:39:04;;;;;;;9.82;4.97;;;;;;;27.82;45.73;100087.84;5050497;28;20067;-30
2022/08/03 06:41:29;;;;;;;6.78;4.18;;;;;;;27.94;44.77;100071.50;5050678;28;20030;-28
2022/08/03 06:43:55;;;;;;;10.20;4.15;;;;;;;28.00;46.06;100072.09;5069043;28;20021;-28
2022/08/03 06:46:21;;;;;;;10.88;4.28;;;;;;;27.80;46.04;100054.50;5068880;28;20032;-27
2022/08/03 06:48:47;;;;;;;7.22;4.55;;;;;;;27.90;46.43;100059.59;5068989;28;20025;-28
2022/08/03 06:51:12;;;;;;;7.22;4.70;;;;;;;27.96;46.15;100063.72;5068256;28;20059;-31
2022/08/03 06:53:37;;;;;;;7.18;4.10;;;;;;;27.94;46.33;100060.53;5068848;28;20461;-29
2022/08/03 06:56:07;;;;;;;8.23;4.40;;;;;;;28.05;47.66;100078.19;5068813;28;20439;-28
2022/08/03 06:58:33;;;;;;;8.60;4.53;;;;;;;28.00;46.22;100064.66;5050651;28;20454;-31
2022/08/03 07:00:58;;;;;;;9.15;4.80;;;;;;;28.02;46.98;100067.88;5050522;28;20021;-30
2022/08/03 07:03:24;;;;;;;7.05;4.80;;;;;;;28.43;45.05;100081.84;5068845;28;20039;-28
2022/08/03 07:05:50;;;;;;;10.35;4.70;;;;;;;28.39;45.39;100073.47;5068556;28;20044;-27
2022/08/03 07:08:16;;;;;;;6.72;4.82;;;;;;;28.09;44.96;100066.53;5050289;28;20029;-28
2022/08/03 07:10:43;;;;;;;6.82;4.40;;;;;;;28.41;45.12;100073.94;5050293;28;20070;-28
2022/08/03 07:13:09;;;;;;;6.25;4.75;;;;;;;28.68;43.68;100077.22;5050212;28;20123;-32
2022/08/03 07:15:34;;;;;;;8.50;5.05;;;;;;;28.74;44.04;100066.84;5068572;28;20111;-31
2022/08/03 07:18:00;;;;;;;7.43;4.50;;;;;;;28.73;43.76;100074.28;5068194;28;20094;-28
2022/08/03 07:20:25;;;;;;;23.67;20.80;;;;;;;28.68;43.53;100077.22;5068060;28;20021;-29
2022/08/03 07:22:51;;;;;;;6.00;4.38;;;;;;;28.99;43.41;100071.22;5068319;28;20410;-27
2022/08/03 07:25:17;;;;;;;15.75;5.20;;;;;;;29.20;42.38;100071.13;5049722;28;20028;-28
2022/08/03 07:27:46;;;;;;;8.55;4.70;;;;;;;29.13;42.39;100081.06;5067974;28;20031;-30
2022/08/03 07:30:13;;;;;;;7.43;4.43;;;;;;;28.75;42.85;100066.50;5049564;28;20098;-30
2022/08/03 07:32:39;;;;;;;8.57;4.53;;;;;;;28.87;42.81;100081.38;5068177;28;20031;-28
2022/08/03 07:35:06;;;;;;;7.28;4.20;;;;;;;28.75;41.72;100066.50;5067464;28;20263;-28
2022/08/03 07:37:32;;;;;;;5.83;4.00;;;;;;;28.90;43.25;100066.97;5049404;28;20090;-30
2022/08/03 07:39:58;;;;;;;6.28;4.05;;;;;;;29.13;41.69;100083.81;5049717;28;20032;-33
2022/08/03 07:42:25;;;;;;;11.00;4.30;;;;;;;29.43;41.51;100070.63;5050071;28;20031;-29
2022/08/03 07:44:51;;;;;;;6.60;3.95;;;;;;;29.67;40.81;100077.19;5049950;28;20317;-28
2022/08/03 07:47:25;;;;;;;8.95;4.30;;;;;;;29.36;41.67;100068.47;5067502;28;20032;-31
2022/08/03 07:49:51;;;;;;;4.93;3.47;;;;;;;29.26;40.29;100093.66;5049626;28;20399;-28
2022/08/03 07:55:01;;;;;;;5.88;3.35;;;;;;;29.79;39.74;100088.19;5067749;28;20055;-27
2022/08/03 07:57:26;;;;;;;5.18;3.45;;;;;;;29.66;39.22;100081.91;5032955;28;20508;-28
2022/08/03 07:59:52;;;;;;;6.13;3.58;;;;;;;29.76;38.43;100091.66;5067757;28;20097;-28
2022/08/03 08:02:17;;;;;;;4.93;3.70;;;;;;;29.68;38.93;100092.56;5067589;28;20032;-29
2022/08/03 08:04:43;;;;;;;6.45;3.67;;;;;;;29.41;41.36;100087.44;5067395;28;20024;-28
2022/08/03 08:07:08;;;;;;;6.55;3.78;;;;;;;29.96;39.79;100093.41;5049219;28;20033;-30
2022/08/03 08:09:34;;;;;;;6.30;3.72;;;;;;;30.00;39.41;100099.03;5049506;28;20040;-28
2022/08/03 08:11:59;;;;;;;4.60;3.35;;;;;;;30.03;37.54;100082.59;5049244;28;20028;-29
2022/08/03 08:14:25;;;;;;;5.88;3.60;;;;;;;30.31;37.43;100092.84;5067264;28;20444;-29
2022/08/03 08:16:50;;;;;;;6.43;3.45;;;;;;;30.60;37.25;100077.88;5067393;28;20028;-28
2022/08/03 08:19:16;;;;;;;4.63;3.40;;;;;;;30.79;35.99;100096.47;5067024;28;20020;-28
2022/08/03 08:21:43;;;;;;;5.65;3.28;;;;;;;31.11;35.56;100085.44;5067169;28;20714;-32
2022/08/03 08:24:08;;;;;;;5.53;3.30;;;;;;;31.14;37.68;100093.00;5049026;28;20020;-30
2022/08/03 08:26:35;;;;;;;5.40;3.50;;;;;;;30.79;36.77;100077.19;5067152;28;20257;-31
2022/08/03 08:29:01;;;;;;;4.88;3.67;;;;;;;31.14;37.21;100087.50;5048812;28;20032;-30
2022/08/03 08:31:26;;;;;;;5.32;3.60;;;;;;;30.76;36.85;100088.91;5066740;28;20523;-30
2022/08/03 08:33:51;;;;;;;5.85;3.22;;;;;;;30.57;36.75;100062.09;5066905;28;20028;-28
2022/08/03 08:36:17;;;;;;;4.82;3.40;;;;;;;30.72;36.74;100085.25;5048758;28;20024;-27
2022/08/03 08:38:43;;;;;;;5.82;3.80;;;;;;;31.32;36.61;100085.13;5067172;28;20726;-28
2022/08/03 08:41:13;;;;;;;14.98;5.43;;;;;;;31.42;36.23;100086.53;5048677;28;20035;-28
2022/08/03 08:43:40;;;;;;;5.32;3.25;;;;;;;31.35;34.11;100087.19;5049395;28;20029;-28
2022/08/03 08:46:08;;;;;;;5.93;3.00;;;;;;;31.35;34.20;100089.16;5048738;28;20032;-28
2022/08/03 08:48:39;;;;;;;4.05;2.90;;;;;;;31.40;33.39;100078.63;5052392;28;20314;-28
2022/08/03 08:51:05;;;;;;;4.57;3.10;;;;;;;31.32;32.80;100073.31;5052737;28;20503;-31
2022/08/03 08:53:35;;;;;;;4.47;3.40;;;;;;;31.24;35.64;100075.94;5053186;28;20734;-28
2022/08/03 08:56:01;;;;;;;6.07;3.55;;;;;;;31.12;35.17;100089.81;5052897;28;20085;-30
2022/08/03 08:58:36;;;;;;;6.93;3.30;;;;;;;30.81;34.19;100054.78;5052975;28;20036;-31
2022/08/03 09:01:01;;;;;;;6.00;3.22;;;;;;;30.83;34.81;100069.81;5052540;28;20062;-29
2022/08/03 09:03:27;;;;;;;7.47;3.50;;;;;;;30.83;36.60;100072.56;5070737;28;20140;-28
2022/08/03 09:05:53;;;;;;;4.40;3.40;;;;;;;30.97;36.36;100074.09;5070932;28;20032;-32
2022/08/03 09:08:19;;;;;;;4.88;3.33;;;;;;;30.92;34.69;100072.41;5052763;28;20107;-33
2022/08/03 09:10:44;;;;;;;5.38;3.35;;;;;;;31.21;34.70;100071.13;5070899;28;20020;-34
2022/08/03 09:13:10;;;;;;;4.72;3.05;;;;;;;31.38;33.31;100064.41;5052282;28;20032;-29
2022/08/03 09:15:37;;;;;;;5.20;3.17;;;;;;;31.60;34.37;100071.22;5070873;28;20094;-36
2022/08/03 09:18:03;;;;;;;4.72;3.05;;;;;;;31.99;33.59;100068.50;5070744;28;20037;-28
2022/08/03 09:20:31;;;;;;;6.35;3.28;;;;;;;32.16;32.92;100061.75;5052689;28;20056;-28
2022/08/03 09:23:03;;;;;;;15.88;5.43;;;;;;;30.63;51.41;100057.13;5052237;28;20038;-32
2022/08/03 09:25:33;;;;;;;6.88;3.95;;;;;;;31.35;37.55;100059.63;5053355;28;20048;-28
2022/08/03 09:28:19;;;;;;;5.32;3.08;;;;;;;31.73;44.00;100065.56;5052276;28;20037;-29
2022/08/03 09:30:58;;;;;;;5.05;2.80;;;;;;;31.45;36.87;100052.78;5069322;28;20052;-34
2022/08/03 09:33:24;;;;;;;5.35;3.08;;;;;;;31.58;36.50;100059.75;5052115;28;20476;-32
2022/08/03 09:35:49;;;;;;;5.00;2.80;;;;;;;32.20;34.59;100048.00;5052411;28;20031;-28
2022/08/03 09:38:24;;;;;;;7.25;3.22;;;;;;;32.50;38.43;100050.13;5070010;28;20565;-28
2022/08/03 09:40:50;;;;;;;5.43;3.28;;;;;;;32.57;32.33;100033.69;5070048;28;20024;-28
2022/08/03 09:43:16;;;;;;;5.05;3.00;;;;;;;32.11;36.46;100039.97;5051922;28;20032;-31
2022/08/03 09:45:43;;;;;;;4.82;3.00;;;;;;;31.97;32.17;100026.66;5052024;28;20025;-30
2022/08/03 09:48:28;;;;;;;5.05;3.00;;;;;;;32.35;33.64;100041.59;5069884;28;20025;-31
2022/08/03 09:51:02;;;;;;;4.05;3.00;;;;;;;32.77;32.24;100015.88;5070044;28;20032;-28
2022/08/03 09:53:28;;;;;;;3.65;2.40;;;;;;;32.73;30.76;100020.56;5069761;28;20468;-34
2022/08/03 09:55:55;;;;;;;4.63;2.72;;;;;;;32.79;30.66;100040.38;5070499;28;20067;-28
2022/08/03 09:58:25;;;;;;;6.68;3.85;;;;;;;32.43;33.02;100024.00;5051363;28;20024;-28
2022/08/03 10:01:03;;;;;;;15.48;12.68;;;;;;;33.09;32.91;100034.94;5052227;28;20120;-29
2022/08/03 10:03:30;;;;;;;3.70;2.63;;;;;;;33.03;30.45;100039.16;5051695;28;20111;-33
2022/08/03 10:05:56;;;;;;;3.65;2.72;;;;;;;33.07;30.32;100039.22;5051364;28;20036;-30
2022/08/03 10:08:22;;;;;;;4.35;2.70;;;;;;;32.70;32.37;100012.22;5069619;28;20098;-31
2022/08/03 10:10:52;;;;;;;4.60;2.70;;;;;;;33.23;31.42;100021.34;5051449;28;20561;-31
2022/08/03 10:13:18;;;;;;;5.00;2.88;;;;;;;33.57;33.07;100002.03;5051237;28;20107;-30
2022/08/03 10:15:46;;;;;;;3.72;2.97;;;;;;;33.82;32.74;100018.16;5051447;28;20054;-29
2022/08/03 10:18:11;;;;;;;3.53;2.60;;;;;;;34.31;30.47;100006.03;5051090;28;20059;-35
2022/08/03 10:20:44;;;;;;;3.83;2.60;;;;;;;34.30;31.23;100009.97;5069580;28;20137;-31
2022/08/03 10:23:10;;;;;;;4.85;2.75;;;;;;;34.01;29.72;100012.41;5051086;28;20033;-29
2022/08/03 10:25:38;;;;;;;5.30;3.17;;;;;;;33.21;29.00;99990.50;5051121;28;20029;-28
2022/08/03 10:28:05;;;;;;;4.55;2.90;;;;;;;32.50;30.05;100003.19;5069088;28;20347;-28
2022/08/03 10:30:35;;;;;;;4.25;3.05;;;;;;;32.32;31.53;100006.44;5050570;28;20401;-31
2022/08/03 10:33:08;;;;;;;4.57;3.13;;;;;;;32.22;32.15;99993.25;5050615;28;20141;-30
2022/08/03 10:35:37;;;;;;;4.78;3.25;;;;;;;32.54;31.95;99995.78;5051138;28;20067;-29
2022/08/03 10:38:09;;;;;;;6.20;2.90;;;;;;;32.82;32.80;99985.19;5051235;28;20567;-29
2022/08/03 10:40:36;;;;;;;4.38;3.08;;;;;;;33.41;32.20;99998.69;5051084;28;20051;-33
2022/08/03 10:43:10;;;;;;;5.10;3.40;;;;;;;33.66;32.39;99987.16;5050891;28;20097;-29
2022/08/03 10:45:40;;;;;;;4.72;3.05;;;;;;;33.51;31.97;99986.97;5068863;28;20054;-28
2022/08/03 10:48:07;;;;;;;4.50;2.95;;;;;;;33.52;32.50;99994.06;5051059;28;20514;-28
2022/08/03 10:50:33;;;;;;;;;;;;;;;33.43;32.47;99990.81;5069573;28;20067;-29
2022/08/03 10:53:06;;;;;;;4.57;3.25;;;;;;;33.48;31.01;99978.63;5068682;28;19916;-32
2022/08/03 10:58:37;;;;;;;4.72;3.10;;;;;;;33.19;31.05;99981.81;5068717;28;20135;-28
2022/08/03 11:01:04;;;;;;;4.47;2.95;;;;;;;33.03;30.98;99956.28;5068372;28;20064;-30
2022/08/03 11:03:31;;;;;;;7.22;3.28;;;;;;;33.16;31.25;99959.66;5050706;28;20590;-28
2022/08/03 11:06:29;;;;;;;4.90;2.85;;;;;;;33.07;31.01;99973.72;5068338;28;20036;-29
2022/08/03 11:09:09;;;;;;;4.25;3.20;;;;;;;33.25;31.10;99978.72;5023579;28;20044;-30
2022/08/03 11:11:46;;;;;;;5.57;3.28;;;;;;;33.87;31.24;99973.53;5067305;28;20020;-29
2022/08/03 11:14:14;;;;;;;4.72;3.17;;;;;;;33.93;30.33;99941.59;5050244;28;20037;-30
2022/08/03 11:16:46;;;;;;;6.78;3.45;;;;;;;33.63;31.39;99963.78;5049990;28;20021;-29
2022/08/03 11:19:18;;;;;;;4.47;3.17;;;;;;;33.18;31.35;99960.88;5067935;28;20028;-28
2022/08/03 11:21:47;;;;;;;5.60;3.20;;;;;;;33.24;32.05;99972.38;5068314;28;20055;-31
2022/08/03 11:24:42;;;;;;;5.05;3.28;;;;;;;33.81;30.02;99972.28;5068028;28;20039;-34
2022/08/03 11:27:16;;;;;;;3.97;3.25;;;;;;;33.82;30.85;99968.38;5049823;28;20490;-29
2022/08/03 11:30:03;;;;;;;4.03;3.28;;;;;;;33.75;30.20;99962.75;5067992;28;20028;-28
2022/08/03 11:32:42;;;;;;;4.50;2.72;;;;;;;34.45;28.70;99954.72;5068460;28;20140;-30
2022/08/03 11:35:07;;;;;;;5.20;3.20;;;;;;;34.85;28.67;99950.28;5049682;28;20060;-28
2022/08/03 11:37:33;;;;;;;4.90;3.28;;;;;;;35.15;27.98;99941.75;5067690;28;20052;-28
2022/08/03 11:39:59;;;;;;;7.53;2.90;;;;;;;35.45;27.47;99943.44;5050080;28;20036;-33
2022/08/03 11:42:25;;;;;;;4.45;2.72;;;;;;;35.46;28.62;99954.16;5049637;28;20044;-35
2022/08/03 11:44:51;;;;;;;5.23;2.83;;;;;;;35.08;27.71;99945.25;5067782;28;20025;-28
2022/08/03 11:47:16;;;;;;;4.57;2.95;;;;;;;34.93;27.58;99940.81;5067483;28;20259;-33